createdAt,value
2024-04-18T00:00:37.832Z,2.27
2024-04-18T00:05:42.878Z,2.22
2024-04-18T00:10:53.380Z,2.15
2024-04-18T00:16:15.063Z,2.04
2024-04-18T00:21:20.116Z,1.98
2024-04-18T00:26:36.931Z,1.89
2024-04-18T00:31:41.940Z,1.85
2024-04-18T00:36:46.969Z,1.88
2024-04-18T00:42:04.400Z,1.86
2024-04-18T00:47:09.681Z,1.85
2024-04-18T00:52:20.341Z,1.75
2024-04-18T00:57:35.547Z,1.75
2024-04-18T01:02:44.638Z,1.73
2024-04-18T01:08:08.283Z,1.74
2024-04-18T01:13:41.824Z,1.77
2024-04-18T01:19:00.009Z,1.75
2024-04-18T01:24:05.050Z,1.68
2024-04-18T01:29:12.597Z,1.64
2024-04-18T01:34:37.645Z,1.57
2024-04-18T01:39:54.946Z,1.49
2024-04-18T01:45:02.570Z,1.45
2024-04-18T01:50:16.565Z,1.43
2024-04-18T01:55:21.560Z,1.41
2024-04-18T02:00:29.433Z,1.42
2024-04-18T02:05:34.497Z,1.46
2024-04-18T02:10:54.984Z,1.38
2024-04-18T02:16:20.760Z,1.36
2024-04-18T02:21:45.760Z,1.36
2024-04-18T02:27:09.951Z,1.34
2024-04-18T02:32:17.541Z,1.33
2024-04-18T02:37:22.572Z,1.31
2024-04-18T02:42:28.014Z,1.28
2024-04-18T02:47:38.832Z,1.21
2024-04-18T02:52:43.853Z,1.17
2024-04-18T02:57:54.826Z,1.09
2024-04-18T03:03:02.402Z,0.99
2024-04-18T03:08:08.165Z,0.91
2024-04-18T03:13:31.220Z,0.85
2024-04-18T03:18:38.815Z,0.82
2024-04-18T03:23:53.811Z,0.85
2024-04-18T03:29:17.620Z,0.89
2024-04-18T03:34:37.741Z,0.93
2024-04-18T03:39:42.762Z,0.91
2024-04-18T03:44:48.305Z,0.84
2024-04-18T03:49:56.022Z,0.86
2024-04-18T03:55:15.369Z,0.88
2024-04-18T04:00:27.904Z,0.89
2024-04-18T04:05:35.608Z,0.91
2024-04-18T04:10:40.640Z,0.90
2024-04-18T04:15:45.750Z,0.83
2024-04-18T04:21:13.380Z,0.82
2024-04-18T04:26:18.773Z,0.82
2024-04-18T04:31:23.741Z,0.86
2024-04-18T04:36:31.323Z,0.85
2024-04-18T04:41:36.299Z,0.82
2024-04-18T04:46:41.270Z,0.81
2024-04-18T04:51:57.733Z,0.80
2024-04-18T04:57:18.008Z,0.81
2024-04-18T05:02:23.022Z,0.85
2024-04-18T05:07:32.189Z,0.93
2024-04-18T05:13:02.130Z,0.94
2024-04-18T05:18:13.374Z,1.00
2024-04-18T05:23:20.972Z,1.14
2024-04-18T05:28:31.762Z,1.26
2024-04-18T05:33:37.844Z,1.36
2024-04-18T05:38:45.510Z,1.51
2024-04-18T05:43:50.435Z,1.69
2024-04-18T05:48:55.519Z,1.92
2024-04-18T05:54:03.143Z,2.10
2024-04-18T05:59:08.113Z,2.27
2024-04-18T06:04:13.156Z,2.54
2024-04-18T06:09:40.694Z,2.85
2024-04-18T06:14:45.943Z,3.15
2024-04-18T06:19:53.002Z,3.44
2024-04-18T06:25:12.437Z,3.79
2024-04-18T06:30:17.708Z,4.19
2024-04-18T06:35:22.781Z,4.57
2024-04-18T06:40:30.333Z,4.97
2024-04-18T06:45:35.588Z,5.33
2024-04-18T06:50:40.899Z,5.77
2024-04-18T06:55:48.735Z,6.11
2024-04-18T07:00:53.807Z,6.47
2024-04-18T07:05:59.889Z,6.75
2024-04-18T07:11:07.533Z,7.03
2024-04-18T07:16:12.524Z,7.30
2024-04-18T07:21:32.372Z,7.72
2024-04-18T07:26:58.678Z,8.08
2024-04-18T07:32:04.000Z,8.29
2024-04-18T07:37:08.971Z,8.56
2024-04-18T07:42:17.598Z,8.79
2024-04-18T07:47:25.049Z,9.07
2024-04-18T07:52:30.179Z,9.25
2024-04-18T07:57:38.424Z,9.58
2024-04-18T08:02:46.495Z,9.81
2024-04-18T08:07:54.592Z,10.02
2024-04-18T08:13:07.748Z,10.36
2024-04-18T08:18:17.554Z,10.67
2024-04-18T08:23:23.206Z,10.80
2024-04-18T08:28:30.786Z,11.20
2024-04-18T08:33:35.774Z,11.54
2024-04-18T08:38:40.764Z,11.61
2024-04-18T08:43:52.202Z,11.37
2024-04-18T08:48:59.014Z,11.35
2024-04-18T08:54:04.097Z,11.24
2024-04-18T08:59:13.887Z,11.33
2024-04-18T09:04:18.951Z,11.09
2024-04-18T09:09:27.286Z,11.19
2024-04-18T09:14:36.312Z,11.43
2024-04-18T09:19:41.308Z,11.60
2024-04-18T09:24:47.022Z,11.81
2024-04-18T09:29:54.622Z,12.34
2024-04-18T09:35:01.632Z,12.34
2024-04-18T09:40:08.984Z,12.13
2024-04-18T09:45:20.847Z,12.10
2024-04-18T09:50:26.523Z,12.09
2024-04-18T09:55:33.007Z,12.42
2024-04-18T10:00:41.951Z,12.86
2024-04-18T10:05:51.165Z,13.36
2024-04-18T10:10:57.019Z,13.15
2024-04-18T10:16:12.822Z,12.98
2024-04-18T10:21:25.414Z,12.97
2024-04-18T10:26:40.466Z,12.78
2024-04-18T10:31:48.089Z,12.38
2024-04-18T10:36:53.336Z,12.60
2024-04-18T10:42:02.258Z,12.60
2024-04-18T10:47:12.104Z,12.98
2024-04-18T10:52:19.135Z,13.03
2024-04-18T10:57:24.205Z,12.86
2024-04-18T11:02:33.843Z,13.11
2024-04-18T11:07:39.126Z,13.61
2024-04-18T11:12:44.345Z,13.40
2024-04-18T11:17:52.081Z,13.06
2024-04-18T11:23:05.520Z,13.50
2024-04-18T11:28:18.110Z,13.70
2024-04-18T11:33:25.919Z,13.74
2024-04-18T11:38:32.811Z,13.63
2024-04-18T11:43:39.133Z,13.65
2024-04-18T11:48:46.759Z,13.66
2024-04-18T11:53:53.863Z,13.85
2024-04-18T11:59:15.083Z,13.88
2024-04-18T12:04:22.947Z,14.16
2024-04-18T12:09:28.102Z,14.31
2024-04-18T12:14:36.798Z,14.50
2024-04-18T12:19:45.078Z,14.53
2024-04-18T12:25:10.590Z,14.44
2024-04-18T12:30:15.576Z,14.50
2024-04-18T12:35:23.187Z,14.56
2024-04-18T12:40:28.716Z,14.75
2024-04-18T12:45:48.615Z,14.32
2024-04-18T12:50:56.239Z,14.40
2024-04-18T12:56:19.343Z,14.76
2024-04-18T13:01:24.427Z,15.06
2024-04-18T13:06:32.423Z,15.10
2024-04-18T13:11:57.460Z,15.09
2024-04-18T13:17:02.535Z,14.95
2024-04-18T13:22:28.574Z,14.74
2024-04-18T13:27:33.660Z,14.84
2024-04-18T13:32:39.706Z,14.83
2024-04-18T13:37:47.357Z,14.46
2024-04-18T13:42:54.917Z,14.22
2024-04-18T13:48:10.090Z,14.13
2024-04-18T13:53:23.859Z,14.27
2024-04-18T13:58:28.828Z,14.32
2024-04-18T14:03:34.465Z,14.65
2024-04-18T14:08:45.630Z,14.75
2024-04-18T14:14:11.081Z,14.93
2024-04-18T14:19:36.114Z,15.10
2024-04-18T14:24:46.281Z,15.04
2024-04-18T14:30:11.052Z,14.93
2024-04-18T14:35:16.059Z,14.89
2024-04-18T14:40:50.148Z,15.12
2024-04-18T14:46:02.662Z,15.29
2024-04-18T14:51:23.016Z,15.17
2024-04-18T14:56:30.597Z,15.03
2024-04-18T15:01:38.169Z,15.10
2024-04-18T15:06:43.131Z,14.98
2024-04-18T15:11:51.123Z,14.94
2024-04-18T15:16:56.072Z,14.79
2024-04-18T15:22:01.171Z,14.58
2024-04-18T15:27:21.604Z,14.41
2024-04-18T15:32:27.029Z,14.16
2024-04-18T15:38:08.735Z,13.97
2024-04-18T15:43:16.351Z,13.72
2024-04-18T15:48:21.483Z,13.41
2024-04-18T15:53:32.282Z,13.13
2024-04-18T15:58:48.870Z,13.05
2024-04-18T16:03:53.891Z,13.07
2024-04-18T16:09:07.902Z,12.78
2024-04-18T16:14:21.866Z,11.75
2024-04-18T16:19:28.379Z,10.87
2024-04-18T16:24:43.805Z,10.41
2024-04-18T16:29:51.445Z,10.30
2024-04-18T16:35:16.464Z,10.12
2024-04-18T16:40:22.808Z,9.83
2024-04-18T16:45:40.330Z,9.71
2024-04-18T16:50:45.635Z,9.33
2024-04-18T16:55:50.666Z,8.97
2024-04-18T17:01:00.268Z,8.53
2024-04-18T17:06:06.728Z,8.57
2024-04-18T17:11:11.877Z,8.49
2024-04-18T17:16:38.077Z,8.30
2024-04-18T17:21:58.155Z,8.23
2024-04-18T17:27:17.145Z,8.28
2024-04-18T17:32:24.913Z,8.39
2024-04-18T17:37:29.923Z,8.53
2024-04-18T17:42:35.064Z,8.67
2024-04-18T17:47:46.622Z,8.77
2024-04-18T17:52:51.798Z,8.79
2024-04-18T17:57:56.734Z,8.77
2024-04-18T18:03:04.419Z,8.73
2024-04-18T18:08:16.663Z,8.75
2024-04-18T18:13:21.650Z,8.73
2024-04-18T18:18:29.448Z,8.76
2024-04-18T18:23:34.454Z,8.69
2024-04-18T18:28:39.482Z,8.61
2024-04-18T18:33:48.493Z,8.50
2024-04-18T18:38:53.476Z,8.39
2024-04-18T18:43:58.448Z,8.32
2024-04-18T18:49:06.440Z,8.25
2024-04-18T18:54:12.127Z,8.19
2024-04-18T18:59:17.171Z,8.15
2024-04-18T19:04:24.920Z,8.08
2024-04-18T19:09:32.477Z,7.97
2024-04-18T19:14:37.646Z,7.88
2024-04-18T19:19:47.950Z,7.80
2024-04-18T19:24:53.111Z,7.75
2024-04-18T19:29:58.886Z,7.72
2024-04-18T19:35:07.059Z,7.67
2024-04-18T19:40:12.948Z,7.62
2024-04-18T19:45:38.391Z,7.54
2024-04-18T19:50:46.014Z,7.51
2024-04-18T19:56:02.993Z,7.37
2024-04-18T20:01:08.016Z,7.18
2024-04-18T20:06:16.372Z,7.10
2024-04-18T20:11:30.572Z,7.02
2024-04-18T20:16:35.697Z,6.99
2024-04-18T20:21:52.634Z,6.91
2024-04-18T20:26:57.679Z,6.87
2024-04-18T20:32:22.786Z,6.83
2024-04-18T20:37:31.256Z,6.79
2024-04-18T20:42:36.311Z,6.67
2024-04-18T20:47:41.679Z,6.58
2024-04-18T20:52:49.349Z,6.55
2024-04-18T20:57:54.375Z,6.62
2024-04-18T21:03:00.502Z,6.63
2024-04-18T21:08:08.694Z,6.58
2024-04-18T21:13:14.148Z,6.49
2024-04-18T21:18:19.308Z,6.43
2024-04-18T21:23:27.198Z,6.42
2024-04-18T21:28:32.256Z,6.33
2024-04-18T21:33:37.418Z,6.26
2024-04-18T21:38:54.294Z,6.27
2024-04-18T21:44:06.139Z,6.27
2024-04-18T21:49:11.222Z,6.26
2024-04-18T21:54:18.940Z,6.26
2024-04-18T21:59:24.053Z,6.27
2024-04-18T22:04:29.178Z,6.23
2024-04-18T22:09:36.879Z,6.13
2024-04-18T22:14:41.929Z,6.08
2024-04-18T22:19:47.053Z,6.03
2024-04-18T22:24:54.737Z,6.01
2024-04-18T22:29:59.813Z,5.99
2024-04-18T22:35:04.844Z,5.99
2024-04-18T22:40:14.319Z,6.00
2024-04-18T22:45:21.466Z,5.99
2024-04-18T22:50:26.598Z,5.98
2024-04-18T22:55:34.219Z,5.94
2024-04-18T23:00:40.196Z,5.90
2024-04-18T23:05:45.623Z,5.85
2024-04-18T23:10:53.322Z,5.85
2024-04-18T23:15:58.386Z,5.84
2024-04-18T23:21:03.438Z,5.81
2024-04-18T23:26:14.531Z,5.77
2024-04-18T23:31:19.583Z,5.74
2024-04-18T23:36:24.654Z,5.75
2024-04-18T23:41:32.267Z,5.74
2024-04-18T23:46:37.556Z,5.65
2024-04-18T23:51:42.830Z,5.63
2024-04-18T23:56:50.511Z,5.60
